createdAt,value
2022-09-26T00:07:39.533Z,969.26
2022-09-26T00:22:41.359Z,969.2
2022-09-26T00:37:43.211Z,969.12
2022-09-26T00:52:45.068Z,969.05
2022-09-26T01:07:46.923Z,969.02
2022-09-26T01:22:48.740Z,969.01
2022-09-26T01:37:50.592Z,969.05
2022-09-26T01:52:52.454Z,969.08
2022-09-26T02:07:54.319Z,969.19
2022-09-26T02:22:56.174Z,969.4
2022-09-26T02:37:58.014Z,969.53
2022-09-26T02:52:59.834Z,969.63
2022-09-26T03:08:01.681Z,969.69
2022-09-26T03:23:03.543Z,969.7
2022-09-26T03:38:05.398Z,969.87
2022-09-26T03:53:07.185Z,969.93
2022-09-26T04:08:09.041Z,970.03
2022-09-26T04:23:10.865Z,970.17
2022-09-26T04:38:12.724Z,970.19
2022-09-26T04:53:14.567Z,970.35
2022-09-26T05:08:16.432Z,970.45
2022-09-26T05:23:18.272Z,970.46
2022-09-26T05:38:20.117Z,970.5
2022-09-26T05:53:21.933Z,970.59
2022-09-26T06:08:23.796Z,970.63
2022-09-26T06:23:25.724Z,970.61
2022-09-26T06:38:27.574Z,970.65
2022-09-26T06:53:29.393Z,970.67
2022-09-26T07:08:57.768Z,970.71
2022-09-26T07:24:03.107Z,970.8
2022-09-26T07:39:04.932Z,970.85
2022-09-26T07:54:06.851Z,970.88
2022-09-26T08:09:08.952Z,970.83
2022-09-26T08:24:10.861Z,970.87
2022-09-26T08:39:12.766Z,970.88
2022-09-26T08:54:14.857Z,970.9
2022-09-26T09:09:16.838Z,971.02
2022-09-26T09:24:18.642Z,971
2022-09-26T09:39:20.492Z,971.01
2022-09-26T09:54:22.355Z,970.99
2022-09-26T10:09:38.693Z,971.07
2022-09-26T10:24:42.040Z,971.06
2022-09-26T10:39:43.874Z,971.04
2022-09-26T10:54:45.686Z,970.91
2022-09-26T11:09:47.544Z,970.96
2022-09-26T11:24:49.406Z,970.87
2022-09-26T11:39:51.223Z,970.84
2022-09-26T11:54:53.074Z,970.95
2022-09-26T12:09:54.907Z,971.05
2022-09-26T12:24:56.707Z,971.07
2022-09-26T12:39:58.552Z,971.02
2022-09-26T12:55:00.399Z,971.02
2022-09-26T13:10:02.231Z,971.14
2022-09-26T13:25:04.051Z,971.2
2022-09-26T13:40:05.904Z,971.08
2022-09-26T13:55:07.733Z,971.09
2022-09-26T14:10:09.567Z,971.16
2022-09-26T14:25:11.418Z,971.24
2022-09-26T14:40:13.287Z,971.28
2022-09-26T14:55:15.155Z,971.29
2022-09-26T15:10:17.023Z,971.46
2022-09-26T15:25:18.871Z,971.49
2022-09-26T15:40:20.747Z,971.43
2022-09-26T15:55:22.643Z,971.34
2022-09-26T16:10:24.462Z,971.35
2022-09-26T16:25:26.299Z,971.33
2022-09-26T16:40:28.209Z,971.17
2022-09-26T16:55:30.046Z,971.01
2022-09-26T17:10:31.867Z,970.93
2022-09-26T17:25:33.720Z,970.7
2022-09-26T17:40:35.638Z,970.42
2022-09-26T17:55:37.516Z,970.09
2022-09-26T18:10:39.379Z,969.89
2022-09-26T18:25:41.210Z,969.59
2022-09-26T18:40:43.067Z,969.28
2022-09-26T18:55:45.006Z,969.04
2022-09-26T19:10:46.865Z,968.71
2022-09-26T19:25:48.710Z,968.4
2022-09-26T19:40:50.605Z,968.06
2022-09-26T19:55:52.457Z,967.78
2022-09-26T20:10:54.277Z,967.53
2022-09-26T20:25:56.114Z,967.29
2022-09-26T20:40:58.055Z,967.06
2022-09-26T20:55:59.937Z,966.73
2022-09-26T21:11:01.794Z,966.53
2022-09-26T21:26:03.638Z,966.21
2022-09-26T21:41:05.550Z,966.05
2022-09-26T21:56:07.846Z,965.92
2022-09-26T22:11:09.786Z,965.74
2022-09-26T22:26:11.607Z,965.65
2022-09-26T22:41:13.461Z,965.46
2022-09-26T22:56:15.303Z,965.08
2022-09-26T23:11:17.152Z,964.86
2022-09-26T23:26:18.991Z,964.82
2022-09-26T23:41:20.816Z,964.71
2022-09-26T23:56:22.677Z,964.72
